createdAt,value
2023-01-21T00:01:17.948Z,50.90
2023-01-21T00:03:46.668Z,50.85
2023-01-21T00:06:16.029Z,51.16
2023-01-21T00:08:44.163Z,51.02
2023-01-21T00:11:15.678Z,51.07
2023-01-21T00:13:45.359Z,51.06
2023-01-21T00:16:14.334Z,51.23
2023-01-21T00:18:42.831Z,51.00
2023-01-21T00:21:11.205Z,51.30
2023-01-21T00:23:39.125Z,50.98
2023-01-21T00:26:09.126Z,51.06
2023-01-21T00:28:39.135Z,51.33
2023-01-21T00:31:09.106Z,50.82
2023-01-21T00:33:37.436Z,50.88
2023-01-21T00:36:07.670Z,51.30
2023-01-21T00:38:35.968Z,50.96
2023-01-21T00:41:04.878Z,51.24
2023-01-21T00:43:33.514Z,51.43
2023-01-21T00:46:03.368Z,51.11
2023-01-21T00:48:31.575Z,51.51
2023-01-21T00:51:00.980Z,50.81
2023-01-21T00:53:29.948Z,51.31
2023-01-21T00:56:01.607Z,51.30
2023-01-21T00:58:30.483Z,51.24
2023-01-21T01:01:04.564Z,50.73
2023-01-21T01:03:32.968Z,50.81
2023-01-21T01:06:04.158Z,51.20
2023-01-21T01:08:32.416Z,51.10
2023-01-21T01:11:00.989Z,51.03
2023-01-21T01:13:29.386Z,50.83
2023-01-21T01:15:58.918Z,51.06
2023-01-21T01:18:30.091Z,51.35
2023-01-21T01:20:58.388Z,51.44
2023-01-21T01:23:26.801Z,51.65
2023-01-21T01:25:59.250Z,51.64
2023-01-21T01:28:27.777Z,51.08
2023-01-21T01:30:56.221Z,51.32
2023-01-21T01:33:24.694Z,51.09
2023-01-21T01:35:54.400Z,51.24
2023-01-21T01:38:23.911Z,51.07
2023-01-21T01:40:53.920Z,50.67
2023-01-21T01:43:24.448Z,50.77
2023-01-21T01:45:54.469Z,51.04
2023-01-21T01:48:28.724Z,51.16
2023-01-21T01:51:03.018Z,51.39
2023-01-21T01:53:32.614Z,50.90
2023-01-21T01:56:01.597Z,50.81
2023-01-21T01:58:32.179Z,51.04
2023-01-21T02:01:01.222Z,51.09
2023-01-21T02:03:46.387Z,51.20
2023-01-21T02:06:17.442Z,51.42
2023-01-21T02:08:46.900Z,51.49
2023-01-21T02:11:15.760Z,51.18
2023-01-21T02:13:50.008Z,51.46
2023-01-21T02:16:38.501Z,51.27
2023-01-21T02:19:38.135Z,51.32
2023-01-21T02:22:13.446Z,50.87
2023-01-21T02:25:32.190Z,51.19
2023-01-21T02:28:17.163Z,51.11
2023-01-21T02:31:03.291Z,51.10
2023-01-21T02:33:53.352Z,51.39
2023-01-21T02:36:39.136Z,51.08
2023-01-21T02:39:15.743Z,51.11
2023-01-21T02:41:57.943Z,51.08
2023-01-21T02:44:33.486Z,51.65
2023-01-21T02:47:08.354Z,51.54
2023-01-21T02:49:41.440Z,51.10
2023-01-21T02:52:09.836Z,50.89
2023-01-21T02:54:52.303Z,51.41
2023-01-21T02:57:37.397Z,50.88
2023-01-21T03:00:10.432Z,51.18
2023-01-21T03:03:08.412Z,51.76
2023-01-21T03:05:53.365Z,51.22
2023-01-21T03:08:23.845Z,51.27
2023-01-21T03:11:02.217Z,51.32
2023-01-21T03:13:53.734Z,51.31
2023-01-21T03:16:43.337Z,51.17
2023-01-21T03:19:14.855Z,51.34
2023-01-21T03:21:45.210Z,51.22
2023-01-21T03:24:17.012Z,51.29
2023-01-21T03:26:49.152Z,50.98
2023-01-21T03:29:20.684Z,51.23
2023-01-21T03:31:52.979Z,51.71
2023-01-21T03:34:23.780Z,51.48
2023-01-21T03:36:59.138Z,51.71
2023-01-21T03:39:37.576Z,51.62
2023-01-21T03:42:05.769Z,51.75
2023-01-21T03:44:34.758Z,51.36
2023-01-21T03:47:12.498Z,51.25
2023-01-21T03:49:45.242Z,51.02
2023-01-21T03:52:16.461Z,51.26
2023-01-21T03:54:44.632Z,51.46
2023-01-21T03:57:12.559Z,51.12
2023-01-21T03:59:40.579Z,51.50
2023-01-21T04:02:08.648Z,51.11
2023-01-21T04:04:36.683Z,51.29
2023-01-21T04:07:05.418Z,51.71
2023-01-21T04:09:34.805Z,51.51
2023-01-21T04:12:02.843Z,51.39
2023-01-21T04:14:30.883Z,51.35
2023-01-21T04:16:59.020Z,51.37
2023-01-21T04:19:27.270Z,51.35
2023-01-21T04:21:55.420Z,51.24
2023-01-21T04:24:23.470Z,51.30
2023-01-21T04:26:52.947Z,51.35
2023-01-21T04:29:23.714Z,51.45
2023-01-21T04:31:51.872Z,51.59
2023-01-21T04:34:20.048Z,52.00
2023-01-21T04:36:49.420Z,52.16
2023-01-21T04:39:17.726Z,52.20
2023-01-21T04:41:45.989Z,51.96
2023-01-21T04:44:15.604Z,52.15
2023-01-21T04:46:44.292Z,51.86
2023-01-21T04:49:12.459Z,52.06
2023-01-21T04:51:40.635Z,51.86
2023-01-21T04:54:10.652Z,51.98
2023-01-21T04:56:38.880Z,51.70
2023-01-21T04:59:07.003Z,51.86
2023-01-21T05:01:36.664Z,51.57
2023-01-21T05:04:04.902Z,51.76
2023-01-21T05:06:32.926Z,51.64
2023-01-21T05:09:00.883Z,51.18
2023-01-21T05:11:28.851Z,51.32
2023-01-21T05:13:56.988Z,51.49
2023-01-21T05:16:24.968Z,51.79
2023-01-21T05:18:54.292Z,51.62
2023-01-21T05:21:22.536Z,51.83
2023-01-21T05:23:50.518Z,51.75
2023-01-21T05:26:19.483Z,52.01
2023-01-21T05:28:47.447Z,51.78
2023-01-21T05:31:15.533Z,52.15
2023-01-21T05:33:46.099Z,52.17
2023-01-21T05:36:18.169Z,52.03
2023-01-21T05:38:46.254Z,51.99
2023-01-21T05:41:14.308Z,51.81
2023-01-21T05:43:42.408Z,52.20
2023-01-21T05:46:10.788Z,52.35
2023-01-21T05:48:39.125Z,51.71
2023-01-21T05:51:07.509Z,51.86
2023-01-21T05:53:37.060Z,51.48
2023-01-21T05:56:05.867Z,51.54
2023-01-21T05:58:33.920Z,51.47
2023-01-21T06:01:02.012Z,51.97
2023-01-21T06:03:30.322Z,51.43
2023-01-21T06:05:58.640Z,51.64
2023-01-21T06:08:26.595Z,51.65
2023-01-21T06:10:56.764Z,51.25
2023-01-21T06:13:26.482Z,52.15
2023-01-21T06:15:56.108Z,51.71
2023-01-21T06:18:24.912Z,51.73
2023-01-21T06:20:53.094Z,52.19
2023-01-21T06:23:22.391Z,51.97
2023-01-21T06:25:51.004Z,52.04
2023-01-21T06:28:20.660Z,51.92
2023-01-21T06:30:48.735Z,52.13
2023-01-21T06:33:16.686Z,52.10
2023-01-21T06:35:44.701Z,52.28
2023-01-21T06:38:12.698Z,52.34
2023-01-21T06:40:40.800Z,52.24
2023-01-21T06:43:09.691Z,51.74
2023-01-21T06:45:39.452Z,51.93
2023-01-21T06:48:07.608Z,51.74
2023-01-21T06:50:35.891Z,52.16
2023-01-21T06:53:04.071Z,52.13
2023-01-21T06:55:32.142Z,51.94
2023-01-21T06:58:00.124Z,51.87
2023-01-21T07:00:28.299Z,52.15
2023-01-21T07:03:01.699Z,51.97
2023-01-21T07:05:29.747Z,52.11
2023-01-21T07:07:59.768Z,51.62
2023-01-21T07:10:27.727Z,51.56
2023-01-21T07:12:55.802Z,51.80
2023-01-21T07:15:23.948Z,51.60
2023-01-21T07:17:53.161Z,51.81
2023-01-21T07:20:22.801Z,51.81
2023-01-21T07:22:50.754Z,51.50
2023-01-21T07:25:19.172Z,51.78
2023-01-21T07:27:48.033Z,52.15
2023-01-21T07:30:19.253Z,51.82
2023-01-21T07:32:47.600Z,52.37
2023-01-21T07:35:16.561Z,52.57
2023-01-21T07:37:46.183Z,52.35
2023-01-21T07:40:14.781Z,52.14
2023-01-21T07:42:43.335Z,51.89
2023-01-21T07:45:12.103Z,52.03
2023-01-21T07:47:40.619Z,51.87
2023-01-21T07:50:09.970Z,52.19
2023-01-21T07:52:38.188Z,52.45
2023-01-21T07:55:11.107Z,52.03
2023-01-21T07:57:40.837Z,52.14
2023-01-21T08:00:10.023Z,52.34
2023-01-21T08:02:38.367Z,52.56
2023-01-21T08:05:07.294Z,52.12
2023-01-21T08:07:35.367Z,52.21
2023-01-21T08:10:03.744Z,52.35
2023-01-21T08:12:33.251Z,52.20
2023-01-21T08:15:01.312Z,52.50
2023-01-21T08:17:29.765Z,52.41
2023-01-21T08:19:58.000Z,52.49
2023-01-21T08:22:26.981Z,52.08
2023-01-21T08:24:55.421Z,52.39
2023-01-21T08:27:24.036Z,52.27
2023-01-21T08:29:53.573Z,52.11
2023-01-21T08:32:21.608Z,52.44
2023-01-21T08:34:50.987Z,52.12
2023-01-21T08:37:19.002Z,52.32
2023-01-21T08:39:47.256Z,52.51
2023-01-21T08:42:15.354Z,52.78
2023-01-21T08:44:46.158Z,52.96
2023-01-21T08:47:15.762Z,52.84
2023-01-21T08:49:43.879Z,53.06
2023-01-21T08:52:12.468Z,52.76
2023-01-21T08:54:42.700Z,53.11
2023-01-21T08:57:11.674Z,52.85
2023-01-21T08:59:40.046Z,52.86
2023-01-21T09:02:08.685Z,52.99
2023-01-21T09:04:38.334Z,52.90
2023-01-21T09:07:06.786Z,52.90
2023-01-21T09:09:35.539Z,52.84
2023-01-21T09:12:03.573Z,52.42
2023-01-21T09:14:31.618Z,52.96
2023-01-21T09:16:59.856Z,52.82
2023-01-21T09:19:28.269Z,52.79
2023-01-21T09:21:57.841Z,52.69
2023-01-21T09:24:26.181Z,52.56
2023-01-21T09:26:55.393Z,52.33
2023-01-21T09:29:23.520Z,52.62
2023-01-21T09:31:51.766Z,53.08
2023-01-21T09:34:20.149Z,52.90
2023-01-21T09:36:48.248Z,52.49
2023-01-21T09:39:18.756Z,53.01
2023-01-21T09:41:51.609Z,53.02
2023-01-21T09:44:26.126Z,53.16
2023-01-21T09:46:59.840Z,53.05
2023-01-21T09:49:32.864Z,53.13
2023-01-21T09:52:10.255Z,52.96
2023-01-21T09:54:40.809Z,53.09
2023-01-21T09:57:38.172Z,53.06
2023-01-21T10:00:34.793Z,53.17
2023-01-21T10:03:14.694Z,52.99
2023-01-21T10:06:09.739Z,53.06
2023-01-21T10:08:53.702Z,52.87
2023-01-21T10:11:34.893Z,53.05
2023-01-21T10:14:17.175Z,53.13
2023-01-21T10:16:53.851Z,53.07
2023-01-21T10:19:28.386Z,52.85
2023-01-21T10:22:01.658Z,52.79
2023-01-21T10:24:34.644Z,52.65
2023-01-21T10:27:04.313Z,52.95
2023-01-21T10:29:36.047Z,52.92
2023-01-21T10:32:07.344Z,52.97
2023-01-21T10:34:41.359Z,52.83
2023-01-21T10:37:20.430Z,53.12
2023-01-21T10:40:00.403Z,53.07
2023-01-21T10:42:51.653Z,52.97
2023-01-21T10:45:30.260Z,53.04
2023-01-21T10:48:05.419Z,53.02
2023-01-21T10:50:46.157Z,53.00
2023-01-21T10:53:23.728Z,53.03
2023-01-21T10:56:01.934Z,53.11
2023-01-21T10:58:37.079Z,52.86
2023-01-21T11:01:09.061Z,52.94
2023-01-21T11:03:42.668Z,52.91
2023-01-21T11:06:14.861Z,53.05
2023-01-21T11:08:46.521Z,52.96
2023-01-21T11:11:16.829Z,52.83
2023-01-21T11:13:46.574Z,53.01
2023-01-21T11:16:14.744Z,52.93
2023-01-21T11:18:44.216Z,52.97
2023-01-21T11:21:20.027Z,52.96
2023-01-21T11:23:55.545Z,53.03
2023-01-21T11:26:28.067Z,52.87
2023-01-21T11:29:16.168Z,52.83
2023-01-21T11:31:48.714Z,52.80
2023-01-21T11:34:18.929Z,52.90
2023-01-21T11:36:58.627Z,52.71
2023-01-21T11:39:28.476Z,52.90
2023-01-21T11:41:58.712Z,52.75
2023-01-21T11:44:28.305Z,52.71
2023-01-21T11:46:56.433Z,52.39
2023-01-21T11:49:30.035Z,52.42
2023-01-21T11:52:15.384Z,52.59
2023-01-21T11:54:44.188Z,52.73
2023-01-21T11:57:32.825Z,52.73
2023-01-21T12:00:13.700Z,52.42
2023-01-21T12:02:45.081Z,52.12
2023-01-21T12:05:20.432Z,52.53
2023-01-21T12:07:52.563Z,52.63
2023-01-21T12:10:27.897Z,52.49
2023-01-21T12:13:15.220Z,52.31
2023-01-21T12:16:06.421Z,52.21
2023-01-21T12:18:49.446Z,52.43
2023-01-21T12:21:30.691Z,52.20
2023-01-21T12:24:13.563Z,52.16
2023-01-21T12:26:46.617Z,52.39
2023-01-21T12:29:33.827Z,51.95
2023-01-21T12:32:11.327Z,52.20
2023-01-21T12:34:45.569Z,52.28
2023-01-21T12:37:19.462Z,52.02
2023-01-21T12:39:50.215Z,52.01
2023-01-21T12:42:22.594Z,51.74
2023-01-21T12:44:54.339Z,51.94
2023-01-21T12:47:34.087Z,51.88
2023-01-21T12:50:18.885Z,51.63
2023-01-21T12:52:58.856Z,51.36
2023-01-21T12:55:33.465Z,51.76
2023-01-21T12:58:07.137Z,51.72
2023-01-21T13:00:39.113Z,51.54
2023-01-21T13:03:22.426Z,51.45
2023-01-21T13:05:56.170Z,51.19
2023-01-21T13:08:36.959Z,51.19
2023-01-21T13:11:14.148Z,51.21
2023-01-21T13:13:49.871Z,51.17
2023-01-21T13:16:18.608Z,50.98
2023-01-21T13:18:54.218Z,50.99
2023-01-21T13:21:33.022Z,50.72
2023-01-21T13:24:15.413Z,50.77
2023-01-21T13:26:51.049Z,50.57
2023-01-21T13:29:26.689Z,50.71
2023-01-21T13:32:11.422Z,50.52
2023-01-21T13:34:52.179Z,50.27
2023-01-21T13:37:27.318Z,50.19
2023-01-21T13:40:19.896Z,50.11
2023-01-21T13:42:57.387Z,50.23
2023-01-21T13:45:33.832Z,50.26
2023-01-21T13:48:37.497Z,50.24
2023-01-21T13:51:26.061Z,49.74
2023-01-21T13:54:47.764Z,49.83
2023-01-21T13:57:44.700Z,49.73
2023-01-21T14:00:18.543Z,49.63
2023-01-21T14:02:56.813Z,49.55
2023-01-21T14:05:31.270Z,49.75
2023-01-21T14:08:07.557Z,49.51
2023-01-21T14:10:40.653Z,48.88
2023-01-21T14:13:37.364Z,48.45
2023-01-21T14:16:37.574Z,47.41
2023-01-21T14:19:24.228Z,47.57
2023-01-21T14:22:09.352Z,47.31
2023-01-21T14:24:49.816Z,47.19
2023-01-21T14:27:25.871Z,46.86
2023-01-21T14:29:58.655Z,46.94
2023-01-21T14:32:33.061Z,47.09
2023-01-21T14:35:14.988Z,46.75
2023-01-21T14:37:45.421Z,46.65
2023-01-21T14:40:19.683Z,46.78
2023-01-21T14:42:50.389Z,46.74
2023-01-21T14:45:22.359Z,48.88
2023-01-21T14:47:52.887Z,51.30
2023-01-21T14:50:47.195Z,51.56
2023-01-21T14:53:21.688Z,52.14
2023-01-21T14:56:10.913Z,51.28
2023-01-21T14:58:40.119Z,50.82
2023-01-21T15:01:08.470Z,49.33
2023-01-21T15:03:48.888Z,47.81
2023-01-21T15:06:23.374Z,46.79
2023-01-21T15:08:54.716Z,46.03
2023-01-21T15:11:30.520Z,44.25
2023-01-21T15:14:13.287Z,42.93
2023-01-21T15:16:42.713Z,42.70
2023-01-21T15:19:24.885Z,39.45
2023-01-21T15:22:19.342Z,38.30
2023-01-21T15:25:18.672Z,37.31
2023-01-21T15:28:24.328Z,36.74
2023-01-21T15:31:01.238Z,36.19
2023-01-21T15:33:30.865Z,36.16
2023-01-21T15:36:01.371Z,36.49
2023-01-21T15:38:29.670Z,36.84
2023-01-21T15:41:03.972Z,37.00
2023-01-21T15:43:36.913Z,37.11
2023-01-21T15:46:22.861Z,36.95
2023-01-21T15:49:03.479Z,37.48
2023-01-21T15:51:47.370Z,37.86
2023-01-21T15:54:31.844Z,38.17
2023-01-21T15:57:16.117Z,38.47
2023-01-21T16:00:04.598Z,38.77
2023-01-21T16:02:43.281Z,39.10
2023-01-21T16:05:23.471Z,39.52
2023-01-21T16:08:01.860Z,39.62
2023-01-21T16:10:38.643Z,40.02
2023-01-21T16:13:16.182Z,40.59
2023-01-21T16:16:01.136Z,40.53
2023-01-21T16:18:36.862Z,41.42
2023-01-21T16:21:05.895Z,41.10
2023-01-21T16:23:38.363Z,41.67
2023-01-21T16:26:06.862Z,41.56
2023-01-21T16:28:49.271Z,41.70
2023-01-21T16:31:17.694Z,41.78
2023-01-21T16:33:48.084Z,41.85
2023-01-21T16:36:16.747Z,42.23
2023-01-21T16:38:47.125Z,42.28
2023-01-21T16:41:27.722Z,42.47
2023-01-21T16:43:59.539Z,42.47
2023-01-21T16:46:32.702Z,42.71
2023-01-21T16:49:04.848Z,42.80
2023-01-21T16:51:36.088Z,43.07
2023-01-21T16:54:24.395Z,43.19
2023-01-21T16:56:55.940Z,42.96
2023-01-21T16:59:28.037Z,43.43
2023-01-21T17:01:57.508Z,43.45
2023-01-21T17:04:27.295Z,43.54
2023-01-21T17:06:55.487Z,43.77
2023-01-21T17:09:29.507Z,43.74
2023-01-21T17:11:59.626Z,43.78
2023-01-21T17:14:30.288Z,44.17
2023-01-21T17:17:01.953Z,44.25
2023-01-21T17:19:35.579Z,44.31
2023-01-21T17:22:11.848Z,44.51
2023-01-21T17:24:44.158Z,44.78
2023-01-21T17:27:17.804Z,44.91
2023-01-21T17:29:46.031Z,45.04
2023-01-21T17:32:32.387Z,45.03
2023-01-21T17:35:12.623Z,45.07
2023-01-21T17:37:47.150Z,45.36
2023-01-21T17:40:28.492Z,45.37
2023-01-21T17:42:57.439Z,45.37
2023-01-21T17:45:31.481Z,45.12
2023-01-21T17:48:09.360Z,45.88
2023-01-21T17:50:46.819Z,45.85
2023-01-21T17:53:21.393Z,45.95
2023-01-21T17:55:59.357Z,45.84
2023-01-21T17:58:48.481Z,46.04
2023-01-21T18:01:17.358Z,46.23
2023-01-21T18:03:45.501Z,46.30
2023-01-21T18:06:20.882Z,46.19
2023-01-21T18:08:50.556Z,46.15
2023-01-21T18:11:19.860Z,46.41
2023-01-21T18:13:48.507Z,46.32
2023-01-21T18:16:17.182Z,46.62
2023-01-21T18:18:45.692Z,46.40
2023-01-21T18:21:21.108Z,46.65
2023-01-21T18:23:50.177Z,46.60
2023-01-21T18:26:26.826Z,46.52
2023-01-21T18:28:55.030Z,46.74
2023-01-21T18:31:23.350Z,46.60
2023-01-21T18:33:51.427Z,46.41
2023-01-21T18:36:21.031Z,46.87
2023-01-21T18:38:49.130Z,47.14
2023-01-21T18:41:17.260Z,46.71
2023-01-21T18:43:47.154Z,46.97
2023-01-21T18:46:16.502Z,46.75
2023-01-21T18:48:44.707Z,46.75
2023-01-21T18:51:14.350Z,46.96
2023-01-21T18:53:43.825Z,46.79
2023-01-21T18:56:14.836Z,47.16
2023-01-21T18:58:43.341Z,46.79
2023-01-21T19:01:22.669Z,47.25
2023-01-21T19:03:53.663Z,47.25
2023-01-21T19:06:23.813Z,47.43
2023-01-21T19:08:55.434Z,47.45
2023-01-21T19:11:27.655Z,47.32
2023-01-21T19:13:55.701Z,47.50
2023-01-21T19:16:24.036Z,47.30
2023-01-21T19:18:52.045Z,47.39
2023-01-21T19:21:20.242Z,47.69
2023-01-21T19:23:48.308Z,47.46
2023-01-21T19:26:18.327Z,47.40
2023-01-21T19:28:46.559Z,47.72
2023-01-21T19:31:15.087Z,48.07
2023-01-21T19:33:46.139Z,47.67
2023-01-21T19:36:16.919Z,47.63
2023-01-21T19:38:55.276Z,47.96
2023-01-21T19:41:25.338Z,48.21
2023-01-21T19:43:53.579Z,48.13
2023-01-21T19:46:23.905Z,48.19
2023-01-21T19:48:53.756Z,48.29
2023-01-21T19:51:22.005Z,47.91
2023-01-21T19:53:50.003Z,48.48
2023-01-21T19:56:23.647Z,48.28
2023-01-21T19:58:53.488Z,48.53
2023-01-21T20:01:21.622Z,48.58
2023-01-21T20:03:59.701Z,48.41
2023-01-21T20:06:31.320Z,48.26
2023-01-21T20:09:01.289Z,48.59
2023-01-21T20:11:29.208Z,48.56
2023-01-21T20:13:58.704Z,48.63
2023-01-21T20:16:27.502Z,48.71
2023-01-21T20:18:56.530Z,48.72
2023-01-21T20:21:25.609Z,48.82
2023-01-21T20:23:53.761Z,48.73
2023-01-21T20:26:26.549Z,48.79
2023-01-21T20:28:54.864Z,48.64
2023-01-21T20:31:24.764Z,48.92
2023-01-21T20:33:53.081Z,48.67
2023-01-21T20:36:25.211Z,48.96
2023-01-21T20:38:55.142Z,48.81
2023-01-21T20:41:23.392Z,48.98
2023-01-21T20:43:51.465Z,48.76
2023-01-21T20:46:22.564Z,49.09
2023-01-21T20:49:03.389Z,49.15
2023-01-21T20:51:31.994Z,48.93
2023-01-21T20:54:00.187Z,48.94
2023-01-21T20:56:30.170Z,49.11
2023-01-21T20:58:58.529Z,49.17
2023-01-21T21:01:28.611Z,48.63
2023-01-21T21:03:58.112Z,49.25
2023-01-21T21:06:28.965Z,49.07
2023-01-21T21:08:57.179Z,48.92
2023-01-21T21:11:25.332Z,49.09
2023-01-21T21:13:53.335Z,48.84
2023-01-21T21:16:23.444Z,49.32
2023-01-21T21:18:52.230Z,49.10
2023-01-21T21:21:23.673Z,49.23
2023-01-21T21:23:57.211Z,49.34
2023-01-21T21:26:26.664Z,49.24
2023-01-21T21:28:55.838Z,49.08
2023-01-21T21:31:24.772Z,49.38
2023-01-21T21:33:52.829Z,49.39
2023-01-21T21:36:24.673Z,49.29
2023-01-21T21:38:55.799Z,49.22
2023-01-21T21:41:43.612Z,49.38
2023-01-21T21:44:12.762Z,49.40
2023-01-21T21:46:58.942Z,49.46
2023-01-21T21:49:27.347Z,49.33
2023-01-21T21:51:57.536Z,49.42
2023-01-21T21:54:25.749Z,49.28
2023-01-21T21:56:53.794Z,49.19
2023-01-21T21:59:21.759Z,49.40
2023-01-21T22:01:49.914Z,49.38
2023-01-21T22:04:17.960Z,49.10
2023-01-21T22:06:45.927Z,49.17
2023-01-21T22:09:15.295Z,49.24
2023-01-21T22:11:43.417Z,49.21
2023-01-21T22:14:14.706Z,49.46
2023-01-21T22:16:42.895Z,49.27
2023-01-21T22:19:10.963Z,48.97
2023-01-21T22:21:39.299Z,49.13
2023-01-21T22:24:08.357Z,49.38
2023-01-21T22:26:37.828Z,48.90
2023-01-21T22:29:06.767Z,49.26
2023-01-21T22:31:35.357Z,49.03
2023-01-21T22:34:03.491Z,49.39
2023-01-21T22:36:32.708Z,49.37
2023-01-21T22:39:01.207Z,49.03
2023-01-21T22:41:31.819Z,49.02
2023-01-21T22:44:01.275Z,49.15
2023-01-21T22:46:31.464Z,48.95
2023-01-21T22:48:59.688Z,49.19
2023-01-21T22:51:28.263Z,49.12
2023-01-21T22:53:56.376Z,49.20
2023-01-21T22:56:49.663Z,49.11
2023-01-21T22:59:15.803Z,49.03
2023-01-21T23:01:44.014Z,49.19
2023-01-21T23:04:12.152Z,49.31
2023-01-21T23:06:40.264Z,49.31
2023-01-21T23:09:11.509Z,49.48
2023-01-21T23:11:42.137Z,49.18
2023-01-21T23:14:11.817Z,48.93
2023-01-21T23:16:41.372Z,49.17
2023-01-21T23:19:09.403Z,49.03
2023-01-21T23:21:38.492Z,49.12
2023-01-21T23:24:07.085Z,49.31
2023-01-21T23:26:35.501Z,48.79
2023-01-21T23:29:03.841Z,49.09
2023-01-21T23:31:33.042Z,48.94
2023-01-21T23:34:03.567Z,49.11
2023-01-21T23:36:32.053Z,49.20
2023-01-21T23:38:59.987Z,48.93
2023-01-21T23:41:28.036Z,49.01
2023-01-21T23:43:59.753Z,49.14
2023-01-21T23:46:30.422Z,48.79
2023-01-21T23:48:58.481Z,49.33
2023-01-21T23:51:27.927Z,49.07
2023-01-21T23:53:57.794Z,48.89
2023-01-21T23:56:27.382Z,48.68
2023-01-21T23:58:55.449Z,48.76
